sensor_id;sensor_type;location;lat;lon;timestamp;pressure;altitude;pressure_sealevel;temperature;humidity
34103;BME280;20381;54.498;18.206;2022-10-16T00:01:15;99242.58;;;12.38;97.30
34103;BME280;20381;54.498;18.206;2022-10-16T00:03:43;99246.89;;;12.39;97.46
34103;BME280;20381;54.498;18.206;2022-10-16T00:06:11;99246.98;;;12.37;97.48
34103;BME280;20381;54.498;18.206;2022-10-16T00:08:39;99247.81;;;12.38;97.55
34103;BME280;20381;54.498;18.206;2022-10-16T00:11:09;99253.05;;;12.38;97.59
34103;BME280;20381;54.498;18.206;2022-10-16T00:13:39;99252.13;;;12.39;97.66
34103;BME280;20381;54.498;18.206;2022-10-16T00:16:08;99254.64;;;12.40;97.58
34103;BME280;20381;54.498;18.206;2022-10-16T00:18:36;99244.28;;;12.39;97.47
34103;BME280;20381;54.498;18.206;2022-10-16T00:21:11;99234.00;;;12.36;97.49
34103;BME280;20381;54.498;18.206;2022-10-16T00:23:41;99241.02;;;12.35;97.45
34103;BME280;20381;54.498;18.206;2022-10-16T00:26:09;99244.47;;;12.36;97.53
34103;BME280;20381;54.498;18.206;2022-10-16T00:28:37;99257.56;;;12.36;97.76
34103;BME280;20381;54.498;18.206;2022-10-16T00:31:05;99263.71;;;12.35;97.92
34103;BME280;20381;54.498;18.206;2022-10-16T00:33:33;99260.18;;;12.36;97.86
34103;BME280;20381;54.498;18.206;2022-10-16T00:36:01;99267.84;;;12.39;97.91
34103;BME280;20381;54.498;18.206;2022-10-16T00:38:28;99270.34;;;12.40;97.92
34103;BME280;20381;54.498;18.206;2022-10-16T00:40:56;99274.55;;;12.43;97.96
34103;BME280;20381;54.498;18.206;2022-10-16T00:43:38;99275.31;;;12.45;97.91
34103;BME280;20381;54.498;18.206;2022-10-16T00:51:45;99270.91;;;12.52;97.90
34103;BME280;20381;54.498;18.206;2022-10-16T00:54:27;99258.02;;;12.49;98.01
34103;BME280;20381;54.498;18.206;2022-10-16T00:56:58;99265.59;;;12.47;98.02
34103;BME280;20381;54.498;18.206;2022-10-16T00:59:35;99264.45;;;12.51;97.85
34103;BME280;20381;54.498;18.206;2022-10-16T01:01:59;99268.93;;;12.49;97.88
34103;BME280;20381;54.498;18.206;2022-10-16T01:04:29;99277.37;;;12.47;97.95
34103;BME280;20381;54.498;18.206;2022-10-16T01:07:30;99279.98;;;12.47;98.02
34103;BME280;20381;54.498;18.206;2022-10-16T01:13:01;99265.95;;;12.48;98.10
34103;BME280;20381;54.498;18.206;2022-10-16T01:18:27;99266.31;;;12.49;98.36
34103;BME280;20381;54.498;18.206;2022-10-16T01:21:05;99268.93;;;12.49;98.42
34103;BME280;20381;54.498;18.206;2022-10-16T01:23:38;99261.08;;;12.49;98.59
34103;BME280;20381;54.498;18.206;2022-10-16T01:26:31;99268.93;;;12.49;98.59
34103;BME280;20381;54.498;18.206;2022-10-16T01:29:23;99272.30;;;12.51;98.60
34103;BME280;20381;54.498;18.206;2022-10-16T01:31:52;99269.88;;;12.55;98.67
34103;BME280;20381;54.498;18.206;2022-10-16T01:34:35;99274.53;;;12.57;98.57
34103;BME280;20381;54.498;18.206;2022-10-16T01:37:02;99274.45;;;12.59;98.63
34103;BME280;20381;54.498;18.206;2022-10-16T01:39:39;99276.95;;;12.60;98.60
34103;BME280;20381;54.498;18.206;2022-10-16T01:42:24;99276.80;;;12.63;98.63
34103;BME280;20381;54.498;18.206;2022-10-16T01:44:53;99277.52;;;12.65;98.70
34103;BME280;20381;54.498;18.206;2022-10-16T01:47:23;99274.81;;;12.67;98.73
34103;BME280;20381;54.498;18.206;2022-10-16T01:49:52;99270.41;;;12.67;98.83
34103;BME280;20381;54.498;18.206;2022-10-16T01:52:22;99273.03;;;12.67;98.74
34103;BME280;20381;54.498;18.206;2022-10-16T01:54:52;99264.34;;;12.67;98.69
34103;BME280;20381;54.498;18.206;2022-10-16T01:57:21;99265.25;;;12.66;98.47
34103;BME280;20381;54.498;18.206;2022-10-16T01:59:52;99262.95;;;12.61;98.41
34103;BME280;20381;54.498;18.206;2022-10-16T02:02:22;99266.31;;;12.56;98.40
34103;BME280;20381;54.498;18.206;2022-10-16T02:04:49;99260.16;;;12.50;98.45
34103;BME280;20381;54.498;18.206;2022-10-16T02:07:31;99256.42;;;12.47;98.53
34103;BME280;20381;54.498;18.206;2022-10-16T02:09:59;99256.22;;;12.43;98.43
34103;BME280;20381;54.498;18.206;2022-10-16T02:12:30;99249.70;;;12.36;98.44
34103;BME280;20381;54.498;18.206;2022-10-16T02:14:58;99257.75;;;12.33;98.61
34103;BME280;20381;54.498;18.206;2022-10-16T02:17:25;99260.17;;;12.28;98.62
34103;BME280;20381;54.498;18.206;2022-10-16T02:19:54;99266.91;;;12.25;98.58
34103;BME280;20381;54.498;18.206;2022-10-16T02:22:26;99257.58;;;12.21;98.56
34103;BME280;20381;54.498;18.206;2022-10-16T02:28:17;99244.95;;;12.14;98.65
34103;BME280;20381;54.498;18.206;2022-10-16T02:30:50;99244.66;;;12.11;98.65
34103;BME280;20381;54.498;18.206;2022-10-16T02:33:19;99244.86;;;12.08;98.72
34103;BME280;20381;54.498;18.206;2022-10-16T02:35:49;99246.36;;;12.05;98.69
34103;BME280;20381;54.498;18.206;2022-10-16T02:38:17;99249.16;;;12.02;98.79
34103;BME280;20381;54.498;18.206;2022-10-16T02:40:44;99252.14;;;12.03;99.03
34103;BME280;20381;54.498;18.206;2022-10-16T02:43:11;99265.59;;;12.04;99.08
34103;BME280;20381;54.498;18.206;2022-10-16T02:45:38;99258.02;;;12.06;99.20
34103;BME280;20381;54.498;18.206;2022-10-16T02:48:05;99255.69;;;12.09;99.24
34103;BME280;20381;54.498;18.206;2022-10-16T02:50:32;99257.20;;;12.13;99.19
34103;BME280;20381;54.498;18.206;2022-10-16T02:52:59;99251.02;;;12.14;99.22
34103;BME280;20381;54.498;18.206;2022-10-16T02:55:26;99252.69;;;12.15;99.11
34103;BME280;20381;54.498;18.206;2022-10-16T02:57:53;99256.25;;;12.14;99.21
34103;BME280;20381;54.498;18.206;2022-10-16T03:00:20;99243.81;;;12.18;99.25
34103;BME280;20381;54.498;18.206;2022-10-16T03:02:47;99251.39;;;12.22;99.42
34103;BME280;20381;54.498;18.206;2022-10-16T03:05:14;99245.02;;;12.26;99.57
34103;BME280;20381;54.498;18.206;2022-10-16T03:07:41;99244.27;;;12.31;99.71
34103;BME280;20381;54.498;18.206;2022-10-16T03:10:08;99251.84;;;12.36;99.68
34103;BME280;20381;54.498;18.206;2022-10-16T03:12:35;99246.70;;;12.42;99.78
34103;BME280;20381;54.498;18.206;2022-10-16T03:15:01;99249.88;;;12.47;99.79
34103;BME280;20381;54.498;18.206;2022-10-16T03:17:28;99251.75;;;12.52;99.77
34103;BME280;20381;54.498;18.206;2022-10-16T03:19:55;99248.34;;;12.57;99.69
34103;BME280;20381;54.498;18.206;2022-10-16T03:22:21;99241.88;;;12.63;99.81
34103;BME280;20381;54.498;18.206;2022-10-16T03:24:48;99245.52;;;12.67;99.66
34103;BME280;20381;54.498;18.206;2022-10-16T03:27:15;99256.56;;;12.72;99.63
34103;BME280;20381;54.498;18.206;2022-10-16T03:29:41;99242.91;;;12.74;99.58
34103;BME280;20381;54.498;18.206;2022-10-16T03:32:08;99248.78;;;12.78;99.58
34103;BME280;20381;54.498;18.206;2022-10-16T03:34:35;99249.80;;;12.83;99.50
34103;BME280;20381;54.498;18.206;2022-10-16T03:37:01;99244.73;;;12.87;99.54
34103;BME280;20381;54.498;18.206;2022-10-16T03:39:29;99252.95;;;12.88;99.62
34103;BME280;20381;54.498;18.206;2022-10-16T03:41:55;99254.53;;;12.90;99.72
34103;BME280;20381;54.498;18.206;2022-10-16T03:44:22;99245.08;;;12.95;99.71
34103;BME280;20381;54.498;18.206;2022-10-16T03:46:48;99245.83;;;12.97;99.72
34103;BME280;20381;54.498;18.206;2022-10-16T03:49:15;99263.22;;;12.98;99.62
34103;BME280;20381;54.498;18.206;2022-10-16T03:51:42;99267.51;;;12.99;99.51
34103;BME280;20381;54.498;18.206;2022-10-16T03:54:09;99249.75;;;12.97;99.52
34103;BME280;20381;54.498;18.206;2022-10-16T03:56:36;99244.13;;;12.96;99.51
34103;BME280;20381;54.498;18.206;2022-10-16T03:59:03;99253.97;;;12.92;99.55
34103;BME280;20381;54.498;18.206;2022-10-16T04:01:29;99264.53;;;12.91;99.62
34103;BME280;20381;54.498;18.206;2022-10-16T04:03:56;99264.17;;;12.90;99.71
34103;BME280;20381;54.498;18.206;2022-10-16T04:06:23;99258.58;;;12.89;99.77
34103;BME280;20381;54.498;18.206;2022-10-16T04:08:49;99262.11;;;12.88;99.74
34103;BME280;20381;54.498;18.206;2022-10-16T04:11:16;99268.47;;;12.91;99.86
34103;BME280;20381;54.498;18.206;2022-10-16T04:13:43;99263.62;;;12.92;99.94
34103;BME280;20381;54.498;18.206;2022-10-16T04:16:09;99274.73;;;12.95;99.92
34103;BME280;20381;54.498;18.206;2022-10-16T04:18:36;99276.32;;;12.98;100.00
34103;BME280;20381;54.498;18.206;2022-10-16T04:21:06;99255.01;;;12.90;100.00
34103;BME280;20381;54.498;18.206;2022-10-16T04:23:33;99270.88;;;13.01;99.87
34103;BME280;20381;54.498;18.206;2022-10-16T04:26:00;99272.47;;;13.04;99.99
34103;BME280;20381;54.498;18.206;2022-10-16T04:28:27;99272.38;;;13.05;100.00
34103;BME280;20381;54.498;18.206;2022-10-16T04:30:54;99267.86;;;13.07;100.00
34103;BME280;20381;54.498;18.206;2022-10-16T04:33:20;99280.76;;;13.10;100.00
34103;BME280;20381;54.498;18.206;2022-10-16T04:35:47;99283.18;;;13.13;100.00
34103;BME280;20381;54.498;18.206;2022-10-16T04:38:14;99280.56;;;13.13;100.00
34103;BME280;20381;54.498;18.206;2022-10-16T04:40:42;99271.57;;;13.17;100.00
34103;BME280;20381;54.498;18.206;2022-10-16T04:43:09;99275.86;;;13.18;100.00
34103;BME280;20381;54.498;18.206;2022-10-16T04:45:36;99273.99;;;13.20;100.00
34103;BME280;20381;54.498;18.206;2022-10-16T04:48:02;99278.28;;;13.21;100.00
34103;BME280;20381;54.498;18.206;2022-10-16T04:50:29;99273.03;;;13.21;100.00
34103;BME280;20381;54.498;18.206;2022-10-16T04:52:56;99265.56;;;13.23;100.00
34103;BME280;20381;54.498;18.206;2022-10-16T04:55:22;99272.95;;;13.23;100.00
34103;BME280;20381;54.498;18.206;2022-10-16T04:57:49;99287.20;;;13.26;100.00
34103;BME280;20381;54.498;18.206;2022-10-16T05:00:16;99286.16;;;13.29;100.00
34103;BME280;20381;54.498;18.206;2022-10-16T05:02:43;99284.64;;;13.32;100.00
34103;BME280;20381;54.498;18.206;2022-10-16T05:05:10;99287.42;;;13.36;100.00
34103;BME280;20381;54.498;18.206;2022-10-16T05:07:37;99284.80;;;13.36;100.00
34103;BME280;20381;54.498;18.206;2022-10-16T05:10:04;99288.56;;;13.39;100.00
34103;BME280;20381;54.498;18.206;2022-10-16T05:12:32;99287.88;;;13.42;100.00
34103;BME280;20381;54.498;18.206;2022-10-16T05:14:58;99288.16;;;13.45;100.00
34103;BME280;20381;54.498;18.206;2022-10-16T05:17:26;99279.33;;;13.46;100.00
34103;BME280;20381;54.498;18.206;2022-10-16T05:19:53;99282.70;;;13.48;100.00
34103;BME280;20381;54.498;18.206;2022-10-16T05:22:20;99285.69;;;13.49;100.00
34103;BME280;20381;54.498;18.206;2022-10-16T05:24:46;99292.23;;;13.49;100.00
34103;BME280;20381;54.498;18.206;2022-10-16T05:27:13;99302.17;;;13.51;100.00
34103;BME280;20381;54.498;18.206;2022-10-16T05:29:42;99291.20;;;13.52;100.00
34103;BME280;20381;54.498;18.206;2022-10-16T05:32:08;99298.14;;;13.53;100.00
34103;BME280;20381;54.498;18.206;2022-10-16T05:34:35;99293.73;;;13.53;100.00
34103;BME280;20381;54.498;18.206;2022-10-16T05:37:01;99290.72;;;13.52;100.00
34103;BME280;20381;54.498;18.206;2022-10-16T05:39:28;99292.03;;;13.52;100.00
34103;BME280;20381;54.498;18.206;2022-10-16T05:41:55;99310.31;;;13.54;100.00
34103;BME280;20381;54.498;18.206;2022-10-16T05:44:21;99309.47;;;13.53;100.00
34103;BME280;20381;54.498;18.206;2022-10-16T05:46:48;99310.98;;;13.50;100.00
34103;BME280;20381;54.498;18.206;2022-10-16T05:49:15;99307.50;;;13.50;100.00
34103;BME280;20381;54.498;18.206;2022-10-16T05:51:41;99320.89;;;13.52;100.00
34103;BME280;20381;54.498;18.206;2022-10-16T05:54:08;99327.08;;;13.51;100.00
34103;BME280;20381;54.498;18.206;2022-10-16T05:56:35;99332.53;;;13.48;100.00
34103;BME280;20381;54.498;18.206;2022-10-16T05:59:03;99331.22;;;13.48;100.00
34103;BME280;20381;54.498;18.206;2022-10-16T06:01:30;99340.40;;;13.48;100.00
34103;BME280;20381;54.498;18.206;2022-10-16T06:03:58;99346.95;;;13.48;100.00
34103;BME280;20381;54.498;18.206;2022-10-16T06:06:26;99343.98;;;13.47;100.00
34103;BME280;20381;54.498;18.206;2022-10-16T06:08:56;99351.84;;;13.47;100.00
34103;BME280;20381;54.498;18.206;2022-10-16T06:11:28;99353.52;;;13.48;100.00
34103;BME280;20381;54.498;18.206;2022-10-16T06:13:57;99359.51;;;13.50;100.00
34103;BME280;20381;54.498;18.206;2022-10-16T06:16:27;99349.58;;;13.48;100.00
34103;BME280;20381;54.498;18.206;2022-10-16T06:18:55;99345.29;;;13.47;100.00
34103;BME280;20381;54.498;18.206;2022-10-16T06:21:24;99353.72;;;13.45;100.00
34103;BME280;20381;54.498;18.206;2022-10-16T06:23:51;99353.72;;;13.45;100.00
34103;BME280;20381;54.498;18.206;2022-10-16T06:26:21;99351.66;;;13.43;100.00
34103;BME280;20381;54.498;18.206;2022-10-16T06:28:49;99346.41;;;13.43;100.00
34103;BME280;20381;54.498;18.206;2022-10-16T06:31:16;99353.72;;;13.45;100.00
34103;BME280;20381;54.498;18.206;2022-10-16T06:33:43;99356.14;;;13.48;100.00
34103;BME280;20381;54.498;18.206;2022-10-16T06:36:14;99353.11;;;13.54;100.00
34103;BME280;20381;54.498;18.206;2022-10-16T06:38:42;99353.30;;;13.58;100.00
34103;BME280;20381;54.498;18.206;2022-10-16T06:41:12;99365.81;;;13.60;100.00
34103;BME280;20381;54.498;18.206;2022-10-16T06:43:40;99370.14;;;13.61;100.00
34103;BME280;20381;54.498;18.206;2022-10-16T06:46:09;99369.19;;;13.62;100.00
34103;BME280;20381;54.498;18.206;2022-10-16T06:48:37;99372.56;;;13.64;100.00
34103;BME280;20381;54.498;18.206;2022-10-16T06:51:12;99379.12;;;13.64;100.00
34103;BME280;20381;54.498;18.206;2022-10-16T06:53:46;99360.91;;;13.69;100.00
34103;BME280;20381;54.498;18.206;2022-10-16T06:56:20;99352.48;;;13.71;100.00
34103;BME280;20381;54.498;18.206;2022-10-16T06:58:49;99358.83;;;13.74;100.00
34103;BME280;20381;54.498;18.206;2022-10-16T07:01:21;99355.05;;;13.78;100.00
34103;BME280;20381;54.498;18.206;2022-10-16T07:03:47;99357.30;;;13.84;100.00
34103;BME280;20381;54.498;18.206;2022-10-16T07:06:16;99361.11;;;13.85;100.00
34103;BME280;20381;54.498;18.206;2022-10-16T07:08:45;99368.41;;;13.87;100.00
34103;BME280;20381;54.498;18.206;2022-10-16T07:11:17;99368.30;;;13.89;100.00
34103;BME280;20381;54.498;18.206;2022-10-16T07:13:47;99366.54;;;13.90;100.00
34103;BME280;20381;54.498;18.206;2022-10-16T07:16:16;99366.21;;;13.94;100.00
34103;BME280;20381;54.498;18.206;2022-10-16T07:18:45;99362.45;;;13.98;100.00
34103;BME280;20381;54.498;18.206;2022-10-16T07:21:19;99359.63;;;14.01;100.00
34103;BME280;20381;54.498;18.206;2022-10-16T07:23:43;99374.20;;;14.05;100.00
34103;BME280;20381;54.498;18.206;2022-10-16T07:26:10;99386.08;;;14.11;100.00
34103;BME280;20381;54.498;18.206;2022-10-16T07:28:37;99382.89;;;14.13;100.00
34103;BME280;20381;54.498;18.206;2022-10-16T07:31:08;99390.08;;;14.17;100.00
34103;BME280;20381;54.498;18.206;2022-10-16T07:33:38;99399.12;;;14.13;100.00
34103;BME280;20381;54.498;18.206;2022-10-16T07:36:05;99404.64;;;14.15;100.00
34103;BME280;20381;54.498;18.206;2022-10-16T07:38:32;99401.89;;;14.17;100.00
34103;BME280;20381;54.498;18.206;2022-10-16T07:41:01;99402.64;;;14.19;100.00
34103;BME280;20381;54.498;18.206;2022-10-16T07:43:32;99407.53;;;14.18;100.00
34103;BME280;20381;54.498;18.206;2022-10-16T07:45:59;99420.59;;;14.12;100.00
34103;BME280;20381;54.498;18.206;2022-10-16T07:48:28;99428.36;;;14.14;100.00
34103;BME280;20381;54.498;18.206;2022-10-16T07:50:58;99427.64;;;14.12;100.00
34103;BME280;20381;54.498;18.206;2022-10-16T07:53:26;99428.41;;;14.06;100.00
34103;BME280;20381;54.498;18.206;2022-10-16T07:55:58;99433.66;;;14.06;100.00
34103;BME280;20381;54.498;18.206;2022-10-16T07:58:27;99424.83;;;14.07;100.00
34103;BME280;20381;54.498;18.206;2022-10-16T08:00:54;99435.97;;;14.11;100.00
34103;BME280;20381;54.498;18.206;2022-10-16T08:03:21;99435.31;;;14.15;100.00
34103;BME280;20381;54.498;18.206;2022-10-16T08:05:48;99448.88;;;14.14;100.00
34103;BME280;20381;54.498;18.206;2022-10-16T08:08:16;99454.25;;;14.13;100.00
34103;BME280;20381;54.498;18.206;2022-10-16T08:10:43;99453.50;;;14.10;100.00
34103;BME280;20381;54.498;18.206;2022-10-16T08:13:10;99445.42;;;14.14;100.00
34103;BME280;20381;54.498;18.206;2022-10-16T08:15:37;99446.44;;;14.18;100.00
34103;BME280;20381;54.498;18.206;2022-10-16T08:18:04;99454.17;;;14.27;100.00
34103;BME280;20381;54.498;18.206;2022-10-16T08:20:32;99445.88;;;14.33;100.00
34103;BME280;20381;54.498;18.206;2022-10-16T08:23:01;99451.13;;;14.33;100.00
34103;BME280;20381;54.498;18.206;2022-10-16T08:25:28;99444.00;;;14.35;100.00
34103;BME280;20381;54.498;18.206;2022-10-16T08:27:55;99448.03;;;14.33;100.00
34103;BME280;20381;54.498;18.206;2022-10-16T08:30:23;99452.84;;;14.34;100.00
34103;BME280;20381;54.498;18.206;2022-10-16T08:32:50;99456.92;;;14.38;100.00
34103;BME280;20381;54.498;18.206;2022-10-16T08:35:17;99458.00;;;14.48;100.00
34103;BME280;20381;54.498;18.206;2022-10-16T08:37:44;99475.87;;;14.56;100.00
34103;BME280;20381;54.498;18.206;2022-10-16T08:43:08;99467.48;;;14.64;100.00
34103;BME280;20381;54.498;18.206;2022-10-16T08:48:48;99472.38;;;14.63;100.00
34103;BME280;20381;54.498;18.206;2022-10-16T08:51:29;99476.86;;;14.68;100.00
34103;BME280;20381;54.498;18.206;2022-10-16T08:53:59;99476.22;;;14.77;100.00
34103;BME280;20381;54.498;18.206;2022-10-16T08:56:30;99481.58;;;14.88;100.00
34103;BME280;20381;54.498;18.206;2022-10-16T08:58:59;99485.88;;;14.89;100.00
34103;BME280;20381;54.498;18.206;2022-10-16T09:01:34;99477.36;;;14.73;100.00
34103;BME280;20381;54.498;18.206;2022-10-16T09:07:01;99503.46;;;14.76;99.90
34103;BME280;20381;54.498;18.206;2022-10-16T09:12:55;99499.44;;;14.58;100.00
34103;BME280;20381;54.498;18.206;2022-10-16T09:15:58;99497.77;;;14.57;100.00
34103;BME280;20381;54.498;18.206;2022-10-16T09:18:59;99498.59;;;14.57;100.00
34103;BME280;20381;54.498;18.206;2022-10-16T09:21:50;99503.38;;;14.58;100.00
34103;BME280;20381;54.498;18.206;2022-10-16T09:24:19;99501.31;;;14.55;100.00
34103;BME280;20381;54.498;18.206;2022-10-16T09:26:47;99499.82;;;14.51;100.00
34103;BME280;20381;54.498;18.206;2022-10-16T09:29:19;99503.38;;;14.50;100.00
34103;BME280;20381;54.498;18.206;2022-10-16T09:31:46;99500.74;;;14.50;100.00
34103;BME280;20381;54.498;18.206;2022-10-16T09:37:00;99497.44;;;14.61;100.00
34103;BME280;20381;54.498;18.206;2022-10-16T09:39:44;99509.23;;;14.68;100.00
34103;BME280;20381;54.498;18.206;2022-10-16T09:42:23;99516.27;;;14.68;100.00
34103;BME280;20381;54.498;18.206;2022-10-16T09:44:56;99516.98;;;14.70;100.00
34103;BME280;20381;54.498;18.206;2022-10-16T09:47:30;99522.42;;;14.74;100.00
34103;BME280;20381;54.498;18.206;2022-10-16T09:49:58;99526.16;;;14.77;100.00
34103;BME280;20381;54.498;18.206;2022-10-16T09:52:30;99523.31;;;14.80;100.00
34103;BME280;20381;54.498;18.206;2022-10-16T09:55:12;99514.27;;;14.84;100.00
34103;BME280;20381;54.498;18.206;2022-10-16T09:57:34;99507.09;;;14.93;100.00
34103;BME280;20381;54.498;18.206;2022-10-16T10:00:04;99506.30;;;14.98;100.00
34103;BME280;20381;54.498;18.206;2022-10-16T10:02:37;99510.91;;;15.08;100.00
34103;BME280;20381;54.498;18.206;2022-10-16T10:05:17;99523.59;;;15.21;100.00
34103;BME280;20381;54.498;18.206;2022-10-16T10:07:56;99525.34;;;15.33;100.00
34103;BME280;20381;54.498;18.206;2022-10-16T10:10:41;99530.03;;;15.35;100.00
34103;BME280;20381;54.498;18.206;2022-10-16T10:13:21;99538.15;;;15.32;100.00
34103;BME280;20381;54.498;18.206;2022-10-16T10:15:50;99533.41;;;15.25;99.98
34103;BME280;20381;54.498;18.206;2022-10-16T10:18:19;99534.46;;;15.22;100.00
34103;BME280;20381;54.498;18.206;2022-10-16T10:20:59;99534.25;;;15.25;100.00
34103;BME280;20381;54.498;18.206;2022-10-16T10:23:28;99534.42;;;15.29;100.00
34103;BME280;20381;54.498;18.206;2022-10-16T10:26:10;99542.59;;;15.37;100.00
34103;BME280;20381;54.498;18.206;2022-10-16T10:28:55;99551.00;;;15.42;100.00
34103;BME280;20381;54.498;18.206;2022-10-16T10:31:33;99547.36;;;15.51;100.00
34103;BME280;20381;54.498;18.206;2022-10-16T10:36:44;99551.89;;;15.74;100.00
34103;BME280;20381;54.498;18.206;2022-10-16T10:39:21;99552.73;;;15.99;100.00
34103;BME280;20381;54.498;18.206;2022-10-16T10:41:57;99550.22;;;16.21;100.00
34103;BME280;20381;54.498;18.206;2022-10-16T10:47:27;99550.39;;;16.66;100.00
34103;BME280;20381;54.498;18.206;2022-10-16T10:50:33;99557.36;;;16.67;99.50
34103;BME280;20381;54.498;18.206;2022-10-16T10:53:18;99553.72;;;16.81;100.00
34103;BME280;20381;54.498;18.206;2022-10-16T11:01:59;99545.14;;;17.35;99.12
34103;BME280;20381;54.498;18.206;2022-10-16T11:04:54;99546.81;;;17.36;98.48
34103;BME280;20381;54.498;18.206;2022-10-16T11:07:40;99545.38;;;17.55;98.98
34103;BME280;20381;54.498;18.206;2022-10-16T11:10:20;99538.05;;;17.58;98.31
34103;BME280;20381;54.498;18.206;2022-10-16T11:12:49;99536.13;;;17.60;97.77
34103;BME280;20381;54.498;18.206;2022-10-16T11:15:33;99533.02;;;17.55;97.43
34103;BME280;20381;54.498;18.206;2022-10-16T11:18:16;99540.58;;;17.54;97.48
34103;BME280;20381;54.498;18.206;2022-10-16T11:20:50;99538.19;;;17.57;97.40
34103;BME280;20381;54.498;18.206;2022-10-16T11:23:46;99537.34;;;17.79;98.52
34103;BME280;20381;54.498;18.206;2022-10-16T11:26:27;99532.89;;;17.85;97.99
34103;BME280;20381;54.498;18.206;2022-10-16T11:28:57;99528.92;;;17.85;97.26
34103;BME280;20381;54.498;18.206;2022-10-16T11:31:45;99524.49;;;17.80;96.61
34103;BME280;20381;54.498;18.206;2022-10-16T11:34:24;99529.86;;;17.73;96.48
34103;BME280;20381;54.498;18.206;2022-10-16T11:37:13;99542.62;;;17.67;96.15
34103;BME280;20381;54.498;18.206;2022-10-16T11:39:48;99539.49;;;17.85;97.05
34103;BME280;20381;54.498;18.206;2022-10-16T11:42:20;99541.04;;;17.93;96.73
34103;BME280;20381;54.498;18.206;2022-10-16T11:45:08;99543.55;;;17.89;95.60
34103;BME280;20381;54.498;18.206;2022-10-16T11:47:35;99549.08;;;17.86;95.64
34103;BME280;20381;54.498;18.206;2022-10-16T11:50:26;99541.41;;;17.83;95.36
34103;BME280;20381;54.498;18.206;2022-10-16T11:53:23;99537.94;;;17.82;95.76
34103;BME280;20381;54.498;18.206;2022-10-16T11:55:45;99544.18;;;17.87;95.77
34103;BME280;20381;54.498;18.206;2022-10-16T12:03:53;99549.32;;;17.72;94.93
34103;BME280;20381;54.498;18.206;2022-10-16T12:06:47;99555.08;;;17.77;94.91
34103;BME280;20381;54.498;18.206;2022-10-16T12:09:28;99563.97;;;17.76;94.45
34103;BME280;20381;54.498;18.206;2022-10-16T12:11:56;99568.05;;;17.68;93.87
34103;BME280;20381;54.498;18.206;2022-10-16T12:14:33;99570.94;;;17.65;94.18
34103;BME280;20381;54.498;18.206;2022-10-16T12:17:22;99575.24;;;17.66;93.57
34103;BME280;20381;54.498;18.206;2022-10-16T12:20:22;99573.34;;;17.57;92.93
34103;BME280;20381;54.498;18.206;2022-10-16T12:22:54;99572.61;;;17.55;92.94
34103;BME280;20381;54.498;18.206;2022-10-16T12:25:37;99574.31;;;17.56;92.91
34103;BME280;20381;54.498;18.206;2022-10-16T12:28:21;99585.45;;;17.65;92.83
34103;BME280;20381;54.498;18.206;2022-10-16T12:30:56;99581.84;;;17.72;92.73
34103;BME280;20381;54.498;18.206;2022-10-16T12:33:30;99580.43;;;17.85;92.50
34103;BME280;20381;54.498;18.206;2022-10-16T12:36:16;99579.94;;;17.91;92.18
34103;BME280;20381;54.498;18.206;2022-10-16T12:38:56;99574.13;;;18.08;92.61
34103;BME280;20381;54.498;18.206;2022-10-16T12:41:29;99581.39;;;18.33;92.60
34103;BME280;20381;54.498;18.206;2022-10-16T12:44:00;99584.97;;;18.43;91.86
34103;BME280;20381;54.498;18.206;2022-10-16T12:46:39;99589.83;;;18.27;91.10
34103;BME280;20381;54.498;18.206;2022-10-16T12:51:51;99585.52;;;18.15;90.82
34103;BME280;20381;54.498;18.206;2022-10-16T12:54:21;99577.37;;;18.18;90.45
34103;BME280;20381;54.498;18.206;2022-10-16T13:00:47;99584.59;;;18.04;90.83
34103;BME280;20381;54.498;18.206;2022-10-16T13:03:44;99587.23;;;18.04;90.81
34103;BME280;20381;54.498;18.206;2022-10-16T13:06:30;99588.56;;;18.04;90.07
34103;BME280;20381;54.498;18.206;2022-10-16T13:15:35;99600.94;;;17.76;88.65
34103;BME280;20381;54.498;18.206;2022-10-16T13:18:14;99601.88;;;17.75;88.57
34103;BME280;20381;54.498;18.206;2022-10-16T13:21:49;99604.42;;;17.76;88.04
34103;BME280;20381;54.498;18.206;2022-10-16T13:26:41;99603.34;;;17.67;87.64
34103;BME280;20381;54.498;18.206;2022-10-16T13:29:34;99618.70;;;17.62;87.64
34103;BME280;20381;54.498;18.206;2022-10-16T13:32:00;99617.48;;;17.55;87.26
34103;BME280;20381;54.498;18.206;2022-10-16T13:34:28;99616.17;;;17.55;87.32
34103;BME280;20381;54.498;18.206;2022-10-16T13:36:55;99618.32;;;17.56;87.41
34103;BME280;20381;54.498;18.206;2022-10-16T13:39:28;99623.98;;;17.62;87.25
34103;BME280;20381;54.498;18.206;2022-10-16T13:42:09;99622.77;;;17.55;86.98
34103;BME280;20381;54.498;18.206;2022-10-16T13:44:46;99625.30;;;17.51;86.92
34103;BME280;20381;54.498;18.206;2022-10-16T13:47:28;99629.73;;;17.45;86.67
34103;BME280;20381;54.498;18.206;2022-10-16T13:50:13;99631.65;;;17.43;86.76
34103;BME280;20381;54.498;18.206;2022-10-16T13:52:42;99626.72;;;17.44;87.17
34103;BME280;20381;54.498;18.206;2022-10-16T13:55:16;99636.80;;;17.50;87.10
34103;BME280;20381;54.498;18.206;2022-10-16T13:57:45;99635.72;;;17.47;86.50
34103;BME280;20381;54.498;18.206;2022-10-16T14:00:23;99639.91;;;17.44;86.57
34103;BME280;20381;54.498;18.206;2022-10-16T14:02:58;99644.61;;;17.46;86.56
34103;BME280;20381;54.498;18.206;2022-10-16T14:05:29;99648.56;;;17.46;86.37
34103;BME280;20381;54.498;18.206;2022-10-16T14:07:57;99646.03;;;17.50;86.70
34103;BME280;20381;54.498;18.206;2022-10-16T14:10:29;99644.13;;;17.52;86.52
34103;BME280;20381;54.498;18.206;2022-10-16T14:13:05;99648.09;;;17.52;86.49